< < Back
Terminal Aerodrome Forecast


Current Version              Previous Versions:   1  2  3  4  5  6  7  8  9  

Terminal Aerodrome Forecast

126
FTUS42 KJAX 252301 AAH
TAFJAX
TAF AMD
KJAX 252301Z 2523/2618 23007KT P6SM SCT035 BKN120 OVC250
     FM260400 22010KT P6SM VCSH SCT025 BKN090 OVC200=

Latest METAR

889
SAUS80 KWBC 260600
MTRJAX
METAR KJAX 260556Z 22005KT 6SM BR FEW110 FEW250 22/22 A2971 RMK AO2
SLP061 T02220217 10233 20206 56018


USA.gov is the U.S. government's official web portal to all federal, state and local government web resources and services.